Time;durP1;ratioP1;P1;durP2;ratioP2;P2;SDS_P1;SDS_P2;PMS_P1;PMS_P2;Temp;Humidity;BMP_temperature;BMP_pressure;BME280_temperature;BME280_humidity;BME280_pressure;Samples;Min_cycle;Max_cycle;Signal;HPM_P1;HPM_P2
2021/08/02 00:00:38;;;;;;;6.55;3.53;;;;;;;18.32;59.36;101205.53;4920114;28;123947;-72
2021/08/02 00:03:15;;;;;;;6.60;3.50;;;;;;;18.35;59.24;101213.38;4916952;28;125098;-72
2021/08/02 00:05:46;;;;;;;6.65;4.00;;;;;;;18.35;59.29;101213.38;4917204;28;113747;-72
2021/08/02 00:08:22;;;;;;;8.57;3.78;;;;;;;18.35;59.09;101210.69;4924671;28;113215;-72
2021/08/02 00:10:50;;;;;;;8.10;4.13;;;;;;;18.35;59.22;101208.00;4926536;28;123296;-72
2021/08/02 00:13:31;;;;;;;5.07;3.25;;;;;;;18.33;59.19;101209.94;4928384;28;123020;-72
2021/08/02 00:16:02;;;;;;;9.23;3.40;;;;;;;18.32;59.04;101205.53;4922389;28;114416;-72
2021/08/02 00:18:30;;;;;;;7.03;3.78;;;;;;;18.31;58.88;101206.50;4919219;28;115256;-72
2021/08/02 00:21:02;;;;;;;7.20;3.63;;;;;;;18.27;59.03;101210.34;4929019;28;122948;-72
2021/08/02 00:23:36;;;;;;;7.20;3.38;;;;;;;18.26;58.82;101208.66;4919222;28;123074;-72
2021/08/02 00:26:04;;;;;;;8.43;3.40;;;;;;;18.22;58.83;101207.16;4926788;28;114465;-72
2021/08/02 00:28:33;;;;;;;7.88;3.60;;;;;;;18.19;59.00;101212.75;4923419;28;114241;-72
2021/08/02 00:31:00;;;;;;;5.70;3.38;;;;;;;18.16;58.85;101215.63;4922716;28;124066;-71
2021/08/02 00:33:27;;;;;;;8.13;3.70;;;;;;;18.13;59.04;101213.19;4921646;28;123710;-72
2021/08/02 00:36:09;;;;;;;6.28;3.25;;;;;;;18.08;58.84;101217.06;4916045;28;113622;-72
2021/08/02 00:38:46;;;;;;;5.03;3.00;;;;;;;18.06;58.82;101218.97;4927921;28;113556;-71
2021/08/02 00:41:49;;;;;;;6.60;3.33;;;;;;;18.01;59.10;101210.41;4924644;28;123774;-72
2021/08/02 00:44:54;;;;;;;4.90;2.95;;;;;;;17.99;58.95;101212.34;4879655;28;123076;-72
2021/08/02 00:47:27;;;;;;;6.13;2.83;;;;;;;17.97;59.04;101214.28;4905153;28;113736;-72
2021/08/02 00:50:02;;;;;;;8.70;3.03;;;;;;;17.96;59.35;101217.06;4922537;28;112602;-72
2021/08/02 00:52:32;;;;;;;9.48;3.95;;;;;;;17.95;59.05;101224.25;4918967;28;124378;-72
2021/08/02 00:55:03;;;;;;;4.82;2.60;;;;;;;17.93;59.32;101228.81;4920581;28;123794;-72
2021/08/02 00:57:37;;;;;;;5.88;3.10;;;;;;;17.93;59.58;101215.44;4909169;28;113785;-71
2021/08/02 01:00:11;;;;;;;5.63;3.00;;;;;;;17.93;59.53;101218.09;4911773;28;113527;-72
2021/08/02 01:02:44;;;;;;;4.97;2.70;;;;;;;17.93;59.23;101223.47;4923994;28;123861;-72
2021/08/02 01:05:15;;;;;;;5.70;2.90;;;;;;;17.94;59.36;101225.19;4915503;28;122052;-71
2021/08/02 01:07:48;;;;;;;5.95;3.00;;;;;;;17.92;59.42;101216.41;4928389;28;115688;-71
2021/08/02 01:10:18;;;;;;;;;;;;;;;17.91;59.26;101220.03;4924394;28;115104;-72
2021/08/02 01:12:49;;;;;;;6.03;2.53;;;;;;;17.94;59.16;101225.19;4928490;28;124557;-72
2021/08/02 01:15:19;;;;;;;6.50;2.95;;;;;;;17.94;59.42;101235.91;4918081;28;123949;-72
2021/08/02 01:17:48;;;;;;;7.25;3.00;;;;;;;17.93;59.28;101227.97;4921848;28;114719;-72
2021/08/02 01:20:15;;;;;;;4.40;2.72;;;;;;;17.93;59.42;101236.88;4928110;28;113803;-72
2021/08/02 01:22:44;;;;;;;6.80;3.08;;;;;;;17.91;59.60;101230.75;4917941;28;124060;-72
2021/08/02 01:25:33;;;;;;;6.60;3.10;;;;;;;17.91;59.57;101225.41;4924780;28;123733;-72
2021/08/02 01:28:15;;;;;;;6.38;3.00;;;;;;;17.92;59.76;101227.13;4926284;28;114558;-72
2021/08/02 01:30:49;;;;;;;5.57;3.10;;;;;;;17.94;59.67;101219.84;4918271;28;113716;-73
2021/08/02 01:33:28;;;;;;;8.77;3.17;;;;;;;17.95;59.65;101226.94;4925026;28;124653;-72
2021/08/02 01:36:04;;;;;;;5.85;3.10;;;;;;;17.96;59.73;101233.97;4920232;28;123370;-72
2021/08/02 01:38:33;;;;;;;6.93;3.58;;;;;;;17.98;59.70;101226.69;4906973;28;114034;-72
2021/08/02 01:41:06;;;;;;;9.68;3.20;;;;;;;18.00;59.64;101224.75;4916728;28;113359;-71
2021/08/02 01:43:38;;;;;;;6.45;3.53;;;;;;;18.00;59.77;101230.13;4915007;28;124580;-72
2021/08/02 01:46:16;;;;;;;5.40;2.95;;;;;;;18.02;59.81;101222.81;4915056;28;124271;-72
2021/08/02 01:49:02;;;;;;;9.45;3.50;;;;;;;18.03;59.90;101223.69;4933452;28;113958;-74
2021/08/02 01:51:37;;;;;;;7.68;3.30;;;;;;;18.04;59.97;101231.59;4924121;28;113905;-71
2021/08/02 01:54:14;;;;;;;6.40;3.30;;;;;;;18.05;59.96;101227.97;4917982;28;124638;-71
2021/08/02 01:56:48;;;;;;;5.40;3.10;;;;;;;18.06;60.20;101224.34;4915079;28;124618;-71
2021/08/02 01:59:20;;;;;;;5.93;3.60;;;;;;;18.08;59.66;101230.47;4916489;28;114741;-70
2021/08/02 02:02:03;;;;;;;5.35;3.28;;;;;;;18.08;59.99;101230.47;4917435;28;114074;-71
2021/08/02 02:04:38;;;;;;;6.82;3.38;;;;;;;18.08;60.12;101227.78;4918821;28;123734;-72
2021/08/02 02:07:11;;;;;;;6.07;3.00;;;;;;;18.10;59.83;101230.31;4919134;28;123129;-72
2021/08/02 02:09:51;;;;;;;8.93;3.80;;;;;;;18.11;59.97;101228.53;4914509;28;114511;-71
2021/08/02 02:12:20;;;;;;;6.05;3.50;;;;;;;18.12;60.20;101222.19;4921013;28;113542;-72
2021/08/02 02:14:54;;;;;;;7.80;3.47;;;;;;;18.12;59.93;101219.50;4919397;28;122955;-72
2021/08/02 02:17:25;;;;;;;6.78;3.25;;;;;;;18.14;60.07;101221.13;4897133;28;123905;-72
2021/08/02 02:19:54;;;;;;;6.63;3.00;;;;;;;18.15;59.91;101217.47;4916640;28;113356;-72
2021/08/02 02:22:24;;;;;;;7.63;3.33;;;;;;;18.17;60.05;101225.41;4917753;28;115442;-72
2021/08/02 02:24:53;;;;;;;6.07;3.55;;;;;;;18.16;60.08;101223.66;4915808;28;123809;-72
2021/08/02 02:27:23;;;;;;;8.10;3.75;;;;;;;18.17;60.08;101230.75;4914192;28;123980;-72
2021/08/02 02:30:02;;;;;;;6.20;3.45;;;;;;;18.18;59.96;101221.75;4915473;28;113660;-72
2021/08/02 02:32:32;;;;;;;5.80;3.50;;;;;;;18.18;59.98;101227.13;4917852;28;114065;-72
2021/08/02 02:35:03;;;;;;;6.60;3.42;;;;;;;18.18;60.09;101227.13;4915767;28;125347;-71
2021/08/02 02:37:34;;;;;;;6.72;3.38;;;;;;;18.18;60.06;101221.75;4937592;28;123093;-72
2021/08/02 02:40:04;;;;;;;8.13;3.47;;;;;;;18.18;60.04;101227.13;4920978;28;114420;-72
2021/08/02 02:42:33;;;;;;;7.28;3.60;;;;;;;18.17;60.23;101215.53;4912342;28;113516;-72
2021/08/02 02:45:05;;;;;;;6.43;3.60;;;;;;;18.18;60.20;101216.41;4915485;28;126244;-72
2021/08/02 02:47:34;;;;;;;6.70;3.65;;;;;;;18.17;60.12;101220.03;4912679;28;124265;-72
2021/08/02 02:50:05;;;;;;;7.20;3.78;;;;;;;18.17;60.41;101225.41;4921709;28;115577;-72
2021/08/02 02:52:33;;;;;;;6.30;3.63;;;;;;;18.18;60.04;101227.13;4936950;28;115346;-72
2021/08/02 02:55:03;;;;;;;6.93;3.72;;;;;;;18.18;60.02;101227.13;4924741;28;124281;-72
2021/08/02 02:57:31;;;;;;;8.57;3.80;;;;;;;18.17;60.18;101231.59;4919862;28;124998;-72
2021/08/02 03:00:00;;;;;;;7.20;3.20;;;;;;;18.18;60.23;101227.13;4917225;28;113911;-72
2021/08/02 03:02:29;;;;;;;6.70;3.53;;;;;;;18.18;60.44;101219.09;4917244;28;112780;-72
2021/08/02 03:04:57;;;;;;;9.85;3.90;;;;;;;18.18;60.26;101211.03;4916692;28;124617;-72
2021/08/02 03:07:29;;;;;;;6.63;3.72;;;;;;;18.20;60.45;101222.50;4918267;28;123256;-72
2021/08/02 03:09:59;;;;;;;7.30;3.78;;;;;;;18.20;60.24;101231.41;4920913;28;112612;-72
2021/08/02 03:12:30;;;;;;;5.43;3.47;;;;;;;18.20;60.30;101230.56;4925164;28;114025;-72
2021/08/02 03:14:57;;;;;;;7.90;3.75;;;;;;;18.20;60.23;101231.41;4915922;28;124145;-72
2021/08/02 03:17:24;;;;;;;7.40;3.53;;;;;;;18.20;60.60;101230.56;4926669;28;123357;-72
2021/08/02 03:19:52;;;;;;;6.22;3.80;;;;;;;18.20;60.43;101235.91;4914801;28;113666;-72
2021/08/02 03:22:33;;;;;;;6.10;3.70;;;;;;;18.20;60.44;101230.56;4918980;28;114025;-72
2021/08/02 03:25:27;;;;;;;7.47;4.03;;;;;;;18.19;60.26;101234.19;4918877;28;123776;-72
2021/08/02 03:28:15;;;;;;;5.90;3.40;;;;;;;18.20;60.33;101230.56;4915162;28;124213;-72
2021/08/02 03:30:45;;;;;;;6.28;3.65;;;;;;;18.21;60.62;101232.25;4916844;28;114636;-73
2021/08/02 03:33:16;;;;;;;9.35;3.97;;;;;;;18.21;60.57;101232.25;4917832;28;114439;-72
2021/08/02 03:35:47;;;;;;;6.07;3.88;;;;;;;18.21;60.75;101237.63;4919405;28;124772;-72
2021/08/02 03:38:20;;;;;;;7.15;3.78;;;;;;;18.21;60.50;101237.63;4915189;28;123794;-73
2021/08/02 03:40:47;;;;;;;6.43;3.60;;;;;;;18.21;60.52;101240.28;4916510;28;115451;-72
2021/08/02 03:43:16;;;;;;;7.05;3.63;;;;;;;18.21;60.81;101248.34;4913891;28;114998;-72
2021/08/02 03:45:44;;;;;;;8.63;3.70;;;;;;;18.20;60.67;101246.63;4911776;28;122214;-72
2021/08/02 03:48:11;;;;;;;6.47;3.55;;;;;;;18.20;60.67;101246.63;4914190;28;123877;-72
2021/08/02 03:50:39;;;;;;;5.50;3.75;;;;;;;18.20;60.73;101252.84;4919582;28;114763;-72
2021/08/02 03:53:06;;;;;;;7.63;3.63;;;;;;;18.20;60.64;101260.91;4922594;28;114052;-72
2021/08/02 03:55:35;;;;;;;6.50;3.78;;;;;;;18.21;60.68;101253.69;4899698;28;124254;-72
2021/08/02 03:58:03;;;;;;;6.40;3.80;;;;;;;18.22;60.89;101255.44;4918179;28;124608;-72
2021/08/02 04:00:30;;;;;;;6.45;3.47;;;;;;;18.23;60.68;101251.75;4914965;28;113699;-72
2021/08/02 04:02:57;;;;;;;8.80;3.47;;;;;;;18.23;60.80;101255.31;4915585;28;114575;-72
2021/08/02 04:05:25;;;;;;;7.68;4.13;;;;;;;18.23;60.75;101246.41;4912453;28;124156;-72
2021/08/02 04:07:52;;;;;;;6.40;3.50;;;;;;;18.25;60.97;101255.19;4916737;28;125329;-72
2021/08/02 04:10:20;;;;;;;7.05;3.50;;;;;;;18.24;60.82;101253.50;4919892;28;114803;-72
2021/08/02 04:12:47;;;;;;;6.18;3.45;;;;;;;18.25;60.81;101266.78;4917459;28;114064;-72
2021/08/02 04:15:14;;;;;;;6.57;3.63;;;;;;;18.28;60.84;101265.72;4920505;28;124186;-72
2021/08/02 04:17:41;;;;;;;5.88;3.47;;;;;;;18.28;60.99;101263.03;4917131;28;123991;-72
2021/08/02 04:20:09;;;;;;;6.53;3.72;;;;;;;18.30;60.78;101274.50;4913035;28;114470;-72
2021/08/02 04:22:36;;;;;;;8.23;3.45;;;;;;;18.31;60.81;101281.59;4927594;28;114133;-72
2021/08/02 04:25:04;;;;;;;6.03;3.55;;;;;;;18.32;60.86;101287.81;4916762;28;124398;-72
2021/08/02 04:27:32;;;;;;;8.30;3.60;;;;;;;18.31;60.61;101281.59;4931016;28;123768;-72
2021/08/02 04:29:59;;;;;;;6.50;3.60;;;;;;;18.32;60.93;101291.34;4930807;28;115320;-72
2021/08/02 04:32:26;;;;;;;6.78;3.60;;;;;;;18.33;60.90;101289.50;4930562;28;114522;-72
2021/08/02 04:34:53;;;;;;;8.55;4.00;;;;;;;18.33;60.89;101298.44;4921672;28;124456;-72
2021/08/02 04:37:20;;;;;;;7.40;3.58;;;;;;;18.34;60.94;101292.09;4924381;28;124002;-72
2021/08/02 04:39:47;;;;;;;5.85;3.50;;;;;;;18.34;60.98;101292.09;4902226;28;113515;-72
2021/08/02 04:42:14;;;;;;;8.35;3.40;;;;;;;18.36;60.98;101295.50;4931143;28;113906;-72
2021/08/02 04:44:41;;;;;;;6.13;3.63;;;;;;;18.35;60.98;101287.59;4924989;28;123893;-73
2021/08/02 04:47:08;;;;;;;5.07;3.22;;;;;;;18.36;60.79;101290.16;4924162;28;124450;-72
2021/08/02 04:49:35;;;;;;;6.18;3.45;;;;;;;18.36;60.96;101290.16;4921421;28;113658;-72
2021/08/02 04:52:03;;;;;;;8.35;3.72;;;;;;;18.37;60.95;101291.88;4921253;28;113579;-72
2021/08/02 04:54:30;;;;;;;5.28;3.35;;;;;;;18.38;61.04;101282.84;4928427;28;124520;-72
2021/08/02 04:56:57;;;;;;;5.85;3.78;;;;;;;18.40;61.04;101286.31;4923349;28;123762;-72
2021/08/02 04:59:24;;;;;;;7.70;3.72;;;;;;;18.43;61.21;101286.06;4915874;28;115018;-73
2021/08/02 05:01:51;;;;;;;6.60;3.38;;;;;;;18.44;61.13;101282.44;4930688;28;113234;-72
2021/08/02 05:04:18;;;;;;;8.52;3.88;;;;;;;18.46;61.11;101269.78;4930388;28;124164;-72
2021/08/02 05:06:45;;;;;;;5.22;3.17;;;;;;;18.48;60.98;101278.56;4919431;28;125718;-72
2021/08/02 05:09:12;;;;;;;8.30;3.78;;;;;;;18.50;61.23;101281.13;4931499;28;114322;-72
2021/08/02 05:11:39;;;;;;;5.80;3.38;;;;;;;18.53;61.17;101280.06;4929530;28;113441;-72
2021/08/02 05:14:06;;;;;;;9.07;3.50;;;;;;;18.55;61.21;101283.47;4921172;28;124901;-72
2021/08/02 05:16:34;;;;;;;6.93;3.50;;;;;;;18.57;61.25;101286.91;4927218;28;123810;-72
2021/08/02 05:19:01;;;;;;;9.45;3.88;;;;;;;18.59;61.17;101290.34;4919813;28;115310;-72
2021/08/02 05:21:28;;;;;;;9.65;3.45;;;;;;;18.62;61.01;101287.44;4931191;28;115199;-72
2021/08/02 05:23:55;;;;;;;5.85;3.58;;;;;;;18.66;61.22;101296.97;4929907;28;124637;-72
2021/08/02 05:26:22;;;;;;;6.63;3.42;;;;;;;18.68;61.20;101284.31;4930157;28;124226;-72
2021/08/02 05:28:49;;;;;;;6.65;3.55;;;;;;;18.70;60.85;101297.63;4925472;28;114276;-72
2021/08/02 05:31:16;;;;;;;5.88;3.38;;;;;;;18.71;61.17;101300.19;4918879;28;113680;-72
2021/08/02 05:33:43;;;;;;;8.00;3.90;;;;;;;18.74;61.25;101310.72;4925420;28;123115;-72
2021/08/02 05:36:10;;;;;;;6.43;3.67;;;;;;;18.77;61.08;101315.00;4917711;28;124771;-72
2021/08/02 05:38:39;;;;;;;6.45;3.65;;;;;;;18.78;60.99;101306.84;4919242;28;114016;-72
2021/08/02 05:41:06;;;;;;;6.07;3.70;;;;;;;18.79;61.06;101305.84;4928767;28;113897;-72
2021/08/02 05:43:34;;;;;;;6.75;4.00;;;;;;;18.80;61.02;101304.94;4920448;28;124273;-72
2021/08/02 05:46:01;;;;;;;5.03;3.72;;;;;;;18.82;61.04;101303.00;4917590;28;122693;-72
2021/08/02 05:48:28;;;;;;;5.18;3.30;;;;;;;18.86;61.14;101314.38;4931055;28;114124;-72
2021/08/02 05:50:55;;;;;;;6.57;3.70;;;;;;;18.88;60.94;101308.91;4931521;28;113198;-72
2021/08/02 05:53:22;;;;;;;8.13;3.58;;;;;;;18.90;60.97;101304.28;4921313;28;124716;-72
2021/08/02 05:55:49;;;;;;;6.28;3.63;;;;;;;18.93;61.20;101314.75;4928771;28;123193;-72
2021/08/02 05:58:17;;;;;;;6.78;3.45;;;;;;;18.98;61.02;101317.97;4929626;28;113378;-72
2021/08/02 06:00:44;;;;;;;6.22;3.30;;;;;;;19.01;60.91;101323.13;4934231;28;113532;-72
2021/08/02 06:03:11;;;;;;;6.03;3.25;;;;;;;19.05;61.23;101319.25;4932244;28;124683;-72
2021/08/02 06:05:38;;;;;;;4.90;3.10;;;;;;;19.09;61.11;101318.03;4931791;28;124078;-72
2021/08/02 06:08:05;;;;;;;4.18;2.97;;;;;;;19.14;61.17;101318.56;4932286;28;115290;-72
2021/08/02 06:10:32;;;;;;;7.90;2.97;;;;;;;19.18;60.91;101319.22;4932537;28;114911;-72
2021/08/02 06:12:59;;;;;;;5.30;3.17;;;;;;;19.21;60.90;101318.97;4932674;28;123838;-72
2021/08/02 06:15:26;;;;;;;5.45;3.03;;;;;;;19.24;60.84;101324.97;4931409;28;123376;-72
2021/08/02 06:17:53;;;;;;;5.80;2.70;;;;;;;19.29;60.77;101327.34;4932361;28;114304;-72
2021/08/02 06:20:20;;;;;;;6.40;2.90;;;;;;;19.35;60.63;101331.38;4929303;28;113711;-73
2021/08/02 06:22:47;;;;;;;4.53;2.55;;;;;;;19.39;60.40;101324.81;4923808;28;123261;-72
2021/08/02 06:25:15;;;;;;;4.55;2.65;;;;;;;19.44;60.32;101319.97;4932747;28;123698;-75
2021/08/02 06:27:42;;;;;;;6.57;2.63;;;;;;;19.48;60.50;101321.44;4932768;28;113341;-75
2021/08/02 06:30:09;;;;;;;6.95;2.80;;;;;;;19.52;60.35;101320.22;4922100;28;112720;-74
2021/08/02 06:32:36;;;;;;;6.20;2.53;;;;;;;19.57;60.33;101325.25;4931446;28;124313;-73
2021/08/02 06:35:04;;;;;;;7.35;2.47;;;;;;;19.62;60.28;101323.91;4930600;28;123102;-72
2021/08/02 06:37:32;;;;;;;5.72;2.40;;;;;;;19.68;60.04;101337.88;4930938;28;114090;-76
2021/08/02 06:39:59;;;;;;;4.63;2.25;;;;;;;19.72;60.05;101333.97;4923054;28;114310;-72
2021/08/02 06:42:26;;;;;;;4.90;2.53;;;;;;;19.78;60.04;101336.25;4934151;28;124319;-73
2021/08/02 06:44:54;;;;;;;5.55;2.40;;;;;;;19.84;59.89;101338.47;4921292;28;123816;-73
2021/08/02 06:47:21;;;;;;;5.38;2.30;;;;;;;19.90;59.91;101335.31;4933686;28;114454;-72
2021/08/02 06:49:48;;;;;;;4.85;2.38;;;;;;;19.98;59.74;101340.94;4922753;28;114112;-75
2021/08/02 06:52:15;;;;;;;4.68;2.40;;;;;;;20.02;59.31;101341.56;4924959;28;123540;-76
2021/08/02 06:54:43;;;;;;;4.80;2.40;;;;;;;20.08;59.43;101335.72;4931454;28;124606;-75
2021/08/02 06:57:10;;;;;;;4.20;2.00;;;;;;;20.15;59.33;101341.47;4933079;28;114447;-72
2021/08/02 06:59:37;;;;;;;5.35;2.30;;;;;;;20.21;59.42;101341.00;4932330;28;115383;-72
2021/08/02 07:02:04;;;;;;;6.60;2.55;;;;;;;20.29;59.08;101338.56;4929768;28;124442;-73
2021/08/02 07:04:31;;;;;;;7.25;2.40;;;;;;;20.37;58.96;101338.81;4943935;28;124195;-72
2021/08/02 07:06:59;;;;;;;3.83;2.38;;;;;;;20.47;59.15;101351.56;4931093;28;114336;-73
2021/08/02 07:09:26;;;;;;;3.50;1.98;;;;;;;20.58;58.94;101348.88;4932289;28;114278;-73
2021/08/02 07:11:53;;;;;;;4.55;2.45;;;;;;;20.66;58.68;101349.13;4927831;28;123720;-72
2021/08/02 07:14:20;;;;;;;5.82;2.03;;;;;;;20.73;58.50;101346.81;4925297;28;124494;-76
2021/08/02 07:16:47;;;;;;;3.15;1.90;;;;;;;20.80;58.27;101343.50;4925995;28;114369;-72
2021/08/02 07:19:14;;;;;;;2.97;1.88;;;;;;;20.88;57.90;101350.13;4929382;28;113831;-72
2021/08/02 07:21:42;;;;;;;5.50;2.00;;;;;;;20.93;57.59;101353.31;4926753;28;124754;-74
2021/08/02 07:24:11;;;;;;;5.57;2.17;;;;;;;21.00;57.41;101351.81;4928067;28;124120;-73
2021/08/02 07:26:39;;;;;;;6.65;2.10;;;;;;;21.07;57.34;101355.72;4931416;28;114417;-73
2021/08/02 07:29:06;;;;;;;6.38;1.80;;;;;;;21.13;56.99;101355.22;4931511;28;113710;-73
2021/08/02 07:31:34;;;;;;;4.53;2.03;;;;;;;21.21;57.03;101357.31;4928351;28;125741;-72
2021/08/02 07:34:01;;;;;;;3.95;2.28;;;;;;;21.29;57.08;101351.28;4920156;28;123939;-72
2021/08/02 07:36:29;;;;;;;5.53;1.92;;;;;;;21.39;56.90;101357.63;4929184;28;114349;-72
2021/08/02 07:38:56;;;;;;;4.30;1.73;;;;;;;21.46;56.38;101349.91;4926516;28;114131;-72
2021/08/02 07:41:23;;;;;;;2.97;1.50;;;;;;;21.50;56.13;101352.22;4926736;28;123516;-73
2021/08/02 07:43:50;;;;;;;3.80;1.90;;;;;;;21.52;55.95;101352.94;4926094;28;122520;-72
2021/08/02 07:46:17;;;;;;;5.55;1.48;;;;;;;21.63;55.74;101345.81;4926735;28;115014;-73
2021/08/02 07:48:44;;;;;;;2.35;1.10;;;;;;;21.68;55.56;101349.84;4929465;28;113634;-74
2021/08/02 07:51:11;;;;;;;3.13;1.10;;;;;;;21.72;54.82;101339.66;4929605;28;123193;-74
2021/08/02 07:53:38;;;;;;;2.70;0.90;;;;;;;21.75;54.54;101344.75;4927243;28;122856;-73
2021/08/02 07:56:06;;;;;;;2.35;0.98;;;;;;;21.82;54.45;101340.56;4925546;28;113573;-73
2021/08/02 07:58:33;;;;;;;3.60;1.00;;;;;;;21.94;54.34;101344.06;4924075;28;113761;-75
2021/08/02 08:01:00;;;;;;;2.22;0.80;;;;;;;22.08;54.21;101342.91;4927131;28;123791;-75
2021/08/02 08:03:28;;;;;;;2.20;1.00;;;;;;;22.26;54.42;101344.00;4930532;28;122751;-75
2021/08/02 08:05:55;;;;;;;1.88;0.80;;;;;;;22.43;54.03;101345.25;4931916;28;113947;-74
2021/08/02 08:08:22;;;;;;;1.85;0.90;;;;;;;22.54;53.52;101347.00;4931548;28;113838;-72
2021/08/02 08:10:50;;;;;;;2.30;1.10;;;;;;;22.65;53.01;101349.63;4932032;28;123962;-72
2021/08/02 08:13:17;;;;;;;3.35;1.20;;;;;;;22.69;52.78;101348.34;4931435;28;123780;-72
2021/08/02 08:15:44;;;;;;;3.13;1.02;;;;;;;22.70;52.53;101347.38;4926243;28;114367;-73
2021/08/02 08:18:11;;;;;;;2.08;1.02;;;;;;;22.67;52.24;101347.63;4929248;28;113846;-73
2021/08/02 08:20:39;;;;;;;4.15;1.27;;;;;;;22.67;51.95;101353.03;4932410;28;124151;-73
2021/08/02 08:23:06;;;;;;;3.22;1.50;;;;;;;22.69;52.06;101351.06;4939527;28;123744;-73
2021/08/02 08:25:38;;;;;;;4.03;1.50;;;;;;;22.72;52.01;101355.34;4935851;28;112684;-73
2021/08/02 08:28:08;;;;;;;4.57;1.40;;;;;;;22.77;51.93;101352.22;4937501;28;112173;-73
2021/08/02 08:30:35;;;;;;;4.30;1.48;;;;;;;22.81;51.84;101348.25;4926179;28;123989;-75
2021/08/02 08:33:03;;;;;;;2.65;1.20;;;;;;;22.87;51.96;101336.94;4943430;28;122950;-73
2021/08/02 08:35:30;;;;;;;2.78;1.27;;;;;;;22.95;51.46;101339.78;4946053;28;113051;-77
2021/08/02 08:37:57;;;;;;;7.55;1.50;;;;;;;22.99;51.28;101346.63;4954326;28;115735;-74
2021/08/02 08:40:24;;;;;;;4.78;1.20;;;;;;;23.00;50.83;101348.34;4943207;28;124852;-75
2021/08/02 08:42:51;;;;;;;13.30;1.50;;;;;;;23.01;50.77;101350.03;4942304;28;123543;-74
2021/08/02 08:45:18;;;;;;;14.80;1.88;;;;;;;22.99;50.65;101352.00;4929687;28;114436;-74
2021/08/02 08:47:46;;;;;;;4.55;1.30;;;;;;;22.95;49.88;101350.59;4931319;28;112418;-75
2021/08/02 08:50:13;;;;;;;1.77;0.95;;;;;;;22.94;50.02;101348.88;4926043;28;124630;-74
2021/08/02 08:52:40;;;;;;;3.10;1.35;;;;;;;22.92;49.92;101345.44;4927294;28;123723;-74
2021/08/02 08:55:13;;;;;;;4.47;1.30;;;;;;;22.88;50.02;101349.41;4925512;28;114279;-74
2021/08/02 08:57:41;;;;;;;2.33;1.33;;;;;;;22.82;49.53;101361.63;4919013;28;113361;-74
2021/08/02 09:00:21;;;;;;;3.95;1.50;;;;;;;22.72;49.77;101361.59;4924421;28;124238;-74
2021/08/02 09:02:50;;;;;;;2.75;1.30;;;;;;;22.65;50.10;101349.63;4923843;28;124609;-73
2021/08/02 09:05:17;;;;;;;4.45;1.45;;;;;;;22.57;49.85;101357.56;4930800;28;114285;-75
2021/08/02 09:07:46;;;;;;;2.65;1.45;;;;;;;22.48;49.82;101347.56;4930748;28;117199;-74
2021/08/02 09:10:15;;;;;;;3.80;1.50;;;;;;;22.46;49.73;101353.09;4923392;28;124587;-75
2021/08/02 09:12:53;;;;;;;2.40;1.30;;;;;;;22.46;49.98;101353.09;4929794;28;122839;-74
2021/08/02 09:15:42;;;;;;;4.88;1.55;;;;;;;22.50;50.34;101351.81;4929901;28;115065;-72
2021/08/02 09:18:14;;;;;;;4.20;1.60;;;;;;;22.61;49.78;101358.97;4924836;28;113152;-74
2021/08/02 09:20:42;;;;;;;3.03;1.40;;;;;;;22.68;50.07;101354.75;4924123;28;123835;-78
2021/08/02 09:23:12;;;;;;;4.22;1.60;;;;;;;22.74;49.98;101358.75;4931490;28;124581;-74
2021/08/02 09:25:51;;;;;;;3.50;1.30;;;;;;;22.79;49.81;101355.63;4927580;28;114902;-77
2021/08/02 09:28:21;;;;;;;3.08;1.48;;;;;;;22.89;50.34;101356.53;4934484;28;115169;-73
2021/08/02 09:31:03;;;;;;;2.22;1.38;;;;;;;23.04;50.40;101352.50;4931088;28;124283;-77
2021/08/02 09:33:49;;;;;;;3.13;1.30;;;;;;;23.25;50.20;101356.97;4931606;28;123817;-78
2021/08/02 09:36:16;;;;;;;1.88;1.20;;;;;;;23.38;49.83;101352.13;4920628;28;113592;-79
2021/08/02 09:38:44;;;;;;;4.30;1.30;;;;;;;23.50;49.47;101356.41;4922011;28;113144;-75
2021/08/02 09:41:20;;;;;;;2.88;1.50;;;;;;;23.63;49.63;101349.88;4926749;28;123548;-75
2021/08/02 09:43:52;;;;;;;6.88;1.60;;;;;;;23.78;49.72;101342.19;4916808;28;124640;-75
2021/08/02 09:46:19;;;;;;;3.42;1.40;;;;;;;23.95;49.69;101354.19;4922051;28;114787;-74
2021/08/02 09:48:48;;;;;;;3.03;1.40;;;;;;;24.08;48.57;101349.31;4925247;28;113903;-76
2021/08/02 09:51:20;;;;;;;2.95;1.20;;;;;;;24.17;48.09;101343.03;4931367;28;124511;-75
2021/08/02 09:53:49;;;;;;;2.45;1.40;;;;;;;24.28;48.08;101345.56;4923957;28;124436;-77
2021/08/02 09:56:24;;;;;;;2.95;1.38;;;;;;;24.40;48.09;101337.28;4931661;28;114073;-78
2021/08/02 09:59:08;;;;;;;2.17;1.10;;;;;;;24.58;47.46;101340.94;4933149;28;114743;-73
2021/08/02 10:01:36;;;;;;;4.53;1.10;;;;;;;24.67;47.48;101340.03;4941826;28;122707;-73
2021/08/02 10:22:43;;;;;;;3.00;1.40;;;;;;;22.99;52.35;101334.97;5006223;28;96592;-68
2021/08/02 10:25:11;;;;;;;2.38;1.30;;;;;;;23.47;51.24;101329.66;4980988;28;107391;-68
2021/08/02 10:27:39;;;;;;;2.70;1.23;;;;;;;23.98;49.49;101324.97;4992151;28;124036;-68
2021/08/02 10:30:22;;;;;;;2.30;1.30;;;;;;;24.47;48.47;101333.81;4987872;28;123684;-68
2021/08/02 10:32:57;;;;;;;2.22;1.35;;;;;;;24.88;47.89;101325.38;4974942;28;106597;-67
2021/08/02 10:35:34;;;;;;;;;;;;;;;25.15;48.70;101331.81;4977064;28;107368;-68
2021/08/02 10:38:07;;;;;;;4.53;1.73;;;;;;;25.41;46.72;101327.38;4978202;28;123429;-68
2021/08/02 10:40:52;;;;;;;3.90;2.10;;;;;;;25.53;45.64;101324.44;4976955;28;124223;-68
2021/08/02 10:43:33;;;;;;;2.85;1.40;;;;;;;25.61;45.39;101321.78;4981627;28;106680;-68
2021/08/02 10:46:15;;;;;;;2.90;1.30;;;;;;;25.74;44.72;101316.81;4976805;28;107373;-68
2021/08/02 10:48:44;;;;;;;2.92;1.20;;;;;;;25.89;44.73;101324.41;4980147;28;124334;-68
2021/08/02 10:51:13;;;;;;;3.08;1.17;;;;;;;26.02;44.10;101330.28;4989961;28;124460;-68
2021/08/02 10:53:41;;;;;;;2.25;1.30;;;;;;;26.08;43.59;101318.78;4987704;28;107303;-66
2021/08/02 10:56:09;;;;;;;3.03;1.40;;;;;;;26.06;43.23;101326.25;4987264;28;107995;-66
2021/08/02 10:58:42;;;;;;;2.42;1.20;;;;;;;26.02;43.02;101324.88;4980030;28;124819;-66
2021/08/02 11:01:14;;;;;;;2.28;1.33;;;;;;;25.94;42.52;101327.53;4984256;28;124744;-66
2021/08/02 11:03:42;;;;;;;2.55;1.50;;;;;;;25.79;42.65;101330.75;4985001;28;107040;-66
2021/08/02 11:06:23;;;;;;;4.40;1.42;;;;;;;25.65;42.48;101323.16;4986502;28;107507;-66
2021/08/02 11:08:53;;;;;;;2.90;1.20;;;;;;;25.51;42.33;101331.88;4983945;28;124102;-66
2021/08/02 11:11:39;;;;;;;2.97;1.25;;;;;;;25.30;42.58;101330.31;4982828;28;123327;-66
2021/08/02 11:14:15;;;;;;;6.35;1.42;;;;;;;25.03;42.96;101334.75;4989279;28;106419;-67
2021/08/02 11:16:48;;;;;;;2.88;1.20;;;;;;;24.78;42.84;101341.69;4971355;28;107595;-67
2021/08/02 11:19:28;;;;;;;4.22;1.48;;;;;;;24.53;43.43;101348.66;4990351;28;124061;-67
2021/08/02 11:21:56;;;;;;;1.95;1.10;;;;;;;24.32;43.58;101339.84;4985784;28;124175;-67
2021/08/02 11:24:36;;;;;;;2.78;1.20;;;;;;;24.10;44.01;101336.47;4980304;28;107891;-67
2021/08/02 11:27:06;;;;;;;2.95;1.40;;;;;;;23.94;44.50;101352.44;4979086;28;107546;-67
2021/08/02 11:29:36;;;;;;;3.67;1.33;;;;;;;23.76;44.63;101350.44;4982470;28;124093;-67
2021/08/02 11:32:11;;;;;;;2.65;1.30;;;;;;;23.57;44.76;101358.56;4984466;28;123984;-68
2021/08/02 11:34:41;;;;;;;2.65;1.50;;;;;;;23.41;44.92;101362.66;4973395;28;107568;-68
2021/08/02 11:37:09;;;;;;;1.75;1.20;;;;;;;23.27;45.19;101363.06;4974266;28;106129;-67
2021/08/02 11:39:46;;;;;;;3.80;1.20;;;;;;;23.13;45.34;101365.19;4965362;28;124094;-68
2021/08/02 11:42:17;;;;;;;4.38;1.67;;;;;;;23.00;45.65;101375.34;4973556;28;124430;-67
2021/08/02 11:44:50;;;;;;;2.38;1.40;;;;;;;22.89;45.98;101368.19;4962737;28;107885;-66
2021/08/02 11:47:18;;;;;;;2.55;1.13;;;;;;;22.81;45.91;101369.84;4971455;28;106112;-65
2021/08/02 11:49:47;;;;;;;2.90;1.33;;;;;;;22.72;46.28;101372.41;4966370;28;123307;-65